sensor_id;sensor_type;location;lat;lon;timestamp;P1;durP1;ratioP1;P2;durP2;ratioP2
57889;SDS011;43707;50.184;18.966;2023-06-10T00:00:16;0.20;;;0.20;;
57889;SDS011;43707;50.184;18.966;2023-06-10T00:02:42;0.20;;;0.20;;
57889;SDS011;43707;50.184;18.966;2023-06-10T00:05:09;0.30;;;0.30;;
57889;SDS011;43707;50.184;18.966;2023-06-10T00:07:34;0.40;;;0.40;;
57889;SDS011;43707;50.184;18.966;2023-06-10T00:10:04;0.30;;;0.30;;
57889;SDS011;43707;50.184;18.966;2023-06-10T00:12:30;0.30;;;0.30;;
57889;SDS011;43707;50.184;18.966;2023-06-10T00:15:02;0.40;;;0.30;;
57889;SDS011;43707;50.184;18.966;2023-06-10T00:17:29;0.30;;;0.30;;
57889;SDS011;43707;50.184;18.966;2023-06-10T00:19:55;0.70;;;0.40;;
57889;SDS011;43707;50.184;18.966;2023-06-10T00:22:20;0.30;;;0.30;;
57889;SDS011;43707;50.184;18.966;2023-06-10T00:24:47;0.60;;;0.50;;
57889;SDS011;43707;50.184;18.966;2023-06-10T00:27:12;1.40;;;0.30;;
57889;SDS011;43707;50.184;18.966;2023-06-10T00:29:38;3.90;;;0.50;;
57889;SDS011;43707;50.184;18.966;2023-06-10T00:32:04;0.40;;;0.40;;
57889;SDS011;43707;50.184;18.966;2023-06-10T00:34:29;0.30;;;0.30;;
57889;SDS011;43707;50.184;18.966;2023-06-10T00:36:55;0.30;;;0.30;;
57889;SDS011;43707;50.184;18.966;2023-06-10T00:39:20;0.60;;;0.30;;
57889;SDS011;43707;50.184;18.966;2023-06-10T00:41:46;0.30;;;0.30;;
57889;SDS011;43707;50.184;18.966;2023-06-10T00:44:11;0.40;;;0.40;;
57889;SDS011;43707;50.184;18.966;2023-06-10T00:46:36;0.30;;;0.30;;
57889;SDS011;43707;50.184;18.966;2023-06-10T00:49:02;0.40;;;0.40;;
57889;SDS011;43707;50.184;18.966;2023-06-10T00:51:28;0.40;;;0.40;;
57889;SDS011;43707;50.184;18.966;2023-06-10T00:53:53;0.30;;;0.30;;
57889;SDS011;43707;50.184;18.966;2023-06-10T00:56:19;0.30;;;0.30;;
57889;SDS011;43707;50.184;18.966;2023-06-10T00:58:44;0.30;;;0.30;;
57889;SDS011;43707;50.184;18.966;2023-06-10T01:01:10;0.30;;;0.30;;
57889;SDS011;43707;50.184;18.966;2023-06-10T01:03:36;0.40;;;0.40;;
57889;SDS011;43707;50.184;18.966;2023-06-10T01:09:04;0.30;;;0.30;;
57889;SDS011;43707;50.184;18.966;2023-06-10T01:11:36;0.30;;;0.30;;
57889;SDS011;43707;50.184;18.966;2023-06-10T01:14:06;0.20;;;0.20;;
57889;SDS011;43707;50.184;18.966;2023-06-10T01:16:32;0.30;;;0.30;;
57889;SDS011;43707;50.184;18.966;2023-06-10T01:19:01;0.30;;;0.30;;
57889;SDS011;43707;50.184;18.966;2023-06-10T01:21:26;0.30;;;0.30;;
57889;SDS011;43707;50.184;18.966;2023-06-10T01:23:52;0.30;;;0.30;;
57889;SDS011;43707;50.184;18.966;2023-06-10T01:26:18;0.40;;;0.40;;
57889;SDS011;43707;50.184;18.966;2023-06-10T01:29:07;0.40;;;0.40;;
57889;SDS011;43707;50.184;18.966;2023-06-10T01:31:44;0.30;;;0.30;;
57889;SDS011;43707;50.184;18.966;2023-06-10T01:34:33;1.30;;;0.30;;
57889;SDS011;43707;50.184;18.966;2023-06-10T01:37:01;0.30;;;0.30;;
57889;SDS011;43707;50.184;18.966;2023-06-10T01:39:27;0.30;;;0.30;;
57889;SDS011;43707;50.184;18.966;2023-06-10T01:41:53;0.20;;;0.20;;
57889;SDS011;43707;50.184;18.966;2023-06-10T01:44:20;0.30;;;0.20;;
57889;SDS011;43707;50.184;18.966;2023-06-10T01:46:46;0.50;;;0.30;;
57889;SDS011;43707;50.184;18.966;2023-06-10T01:49:12;0.30;;;0.30;;
57889;SDS011;43707;50.184;18.966;2023-06-10T01:51:38;0.40;;;0.40;;
57889;SDS011;43707;50.184;18.966;2023-06-10T01:54:03;0.40;;;0.40;;
57889;SDS011;43707;50.184;18.966;2023-06-10T01:56:28;0.50;;;0.30;;
57889;SDS011;43707;50.184;18.966;2023-06-10T01:58:54;0.20;;;0.20;;
57889;SDS011;43707;50.184;18.966;2023-06-10T02:01:24;0.40;;;0.40;;
57889;SDS011;43707;50.184;18.966;2023-06-10T02:03:50;0.30;;;0.30;;
57889;SDS011;43707;50.184;18.966;2023-06-10T02:06:15;0.30;;;0.30;;
57889;SDS011;43707;50.184;18.966;2023-06-10T02:08:41;0.30;;;0.30;;
57889;SDS011;43707;50.184;18.966;2023-06-10T02:11:07;2.20;;;0.80;;
57889;SDS011;43707;50.184;18.966;2023-06-10T02:13:32;1.80;;;1.60;;
57889;SDS011;43707;50.184;18.966;2023-06-10T02:16:00;1.30;;;1.00;;
57889;SDS011;43707;50.184;18.966;2023-06-10T02:18:26;1.60;;;1.50;;
57889;SDS011;43707;50.184;18.966;2023-06-10T02:20:53;1.60;;;1.50;;
57889;SDS011;43707;50.184;18.966;2023-06-10T02:23:18;1.40;;;1.30;;
57889;SDS011;43707;50.184;18.966;2023-06-10T02:25:44;1.60;;;1.50;;
57889;SDS011;43707;50.184;18.966;2023-06-10T02:28:09;1.20;;;1.10;;
57889;SDS011;43707;50.184;18.966;2023-06-10T02:30:35;1.30;;;1.20;;
57889;SDS011;43707;50.184;18.966;2023-06-10T02:33:00;2.50;;;2.20;;
57889;SDS011;43707;50.184;18.966;2023-06-10T02:35:26;1.50;;;1.40;;
57889;SDS011;43707;50.184;18.966;2023-06-10T02:37:52;1.40;;;1.30;;
57889;SDS011;43707;50.184;18.966;2023-06-10T02:40:17;1.40;;;1.30;;
57889;SDS011;43707;50.184;18.966;2023-06-10T02:42:42;1.80;;;1.70;;
57889;SDS011;43707;50.184;18.966;2023-06-10T02:45:08;1.60;;;1.50;;
57889;SDS011;43707;50.184;18.966;2023-06-10T02:47:33;3.10;;;1.70;;
57889;SDS011;43707;50.184;18.966;2023-06-10T02:49:59;4.40;;;1.50;;
57889;SDS011;43707;50.184;18.966;2023-06-10T02:52:24;2.60;;;1.80;;
57889;SDS011;43707;50.184;18.966;2023-06-10T02:54:50;2.10;;;2.00;;
57889;SDS011;43707;50.184;18.966;2023-06-10T02:57:15;1.40;;;1.30;;
57889;SDS011;43707;50.184;18.966;2023-06-10T02:59:41;1.90;;;1.30;;
57889;SDS011;43707;50.184;18.966;2023-06-10T03:02:06;2.40;;;1.30;;
57889;SDS011;43707;50.184;18.966;2023-06-10T03:04:31;1.30;;;1.10;;
57889;SDS011;43707;50.184;18.966;2023-06-10T03:06:57;1.40;;;1.30;;
57889;SDS011;43707;50.184;18.966;2023-06-10T03:09:23;2.10;;;1.90;;
57889;SDS011;43707;50.184;18.966;2023-06-10T03:11:48;1.80;;;1.70;;
57889;SDS011;43707;50.184;18.966;2023-06-10T03:14:13;2.00;;;1.90;;
57889;SDS011;43707;50.184;18.966;2023-06-10T03:16:39;2.80;;;1.40;;
57889;SDS011;43707;50.184;18.966;2023-06-10T03:19:07;2.20;;;2.10;;
57889;SDS011;43707;50.184;18.966;2023-06-10T03:21:36;1.70;;;1.60;;
57889;SDS011;43707;50.184;18.966;2023-06-10T03:24:02;2.50;;;2.40;;
57889;SDS011;43707;50.184;18.966;2023-06-10T03:26:28;1.50;;;1.40;;
57889;SDS011;43707;50.184;18.966;2023-06-10T03:28:54;1.40;;;1.30;;
57889;SDS011;43707;50.184;18.966;2023-06-10T03:31:19;2.00;;;1.90;;
57889;SDS011;43707;50.184;18.966;2023-06-10T03:33:44;1.60;;;1.50;;
57889;SDS011;43707;50.184;18.966;2023-06-10T03:36:10;2.20;;;2.10;;
57889;SDS011;43707;50.184;18.966;2023-06-10T03:38:36;1.10;;;1.10;;
57889;SDS011;43707;50.184;18.966;2023-06-10T03:41:02;1.90;;;1.80;;
57889;SDS011;43707;50.184;18.966;2023-06-10T03:43:28;2.10;;;2.00;;
57889;SDS011;43707;50.184;18.966;2023-06-10T03:45:53;2.70;;;1.40;;
57889;SDS011;43707;50.184;18.966;2023-06-10T03:48:18;2.10;;;1.90;;
57889;SDS011;43707;50.184;18.966;2023-06-10T03:50:44;2.00;;;1.70;;
57889;SDS011;43707;50.184;18.966;2023-06-10T03:53:09;1.90;;;1.80;;
57889;SDS011;43707;50.184;18.966;2023-06-10T03:55:35;1.60;;;1.50;;
57889;SDS011;43707;50.184;18.966;2023-06-10T03:58:01;2.60;;;2.40;;
57889;SDS011;43707;50.184;18.966;2023-06-10T04:00:27;1.80;;;1.70;;
57889;SDS011;43707;50.184;18.966;2023-06-10T04:02:52;4.10;;;1.40;;
57889;SDS011;43707;50.184;18.966;2023-06-10T04:05:18;4.30;;;2.00;;
57889;SDS011;43707;50.184;18.966;2023-06-10T04:07:46;2.70;;;1.70;;
57889;SDS011;43707;50.184;18.966;2023-06-10T04:10:13;3.00;;;2.00;;
57889;SDS011;43707;50.184;18.966;2023-06-10T04:12:39;4.60;;;3.30;;
57889;SDS011;43707;50.184;18.966;2023-06-10T04:15:05;2.40;;;2.20;;
57889;SDS011;43707;50.184;18.966;2023-06-10T04:17:31;2.00;;;1.70;;
57889;SDS011;43707;50.184;18.966;2023-06-10T04:19:56;2.00;;;1.90;;
57889;SDS011;43707;50.184;18.966;2023-06-10T04:22:23;2.60;;;2.40;;
57889;SDS011;43707;50.184;18.966;2023-06-10T04:24:49;2.60;;;2.30;;
57889;SDS011;43707;50.184;18.966;2023-06-10T04:27:14;1.90;;;1.80;;
57889;SDS011;43707;50.184;18.966;2023-06-10T04:29:39;1.80;;;1.70;;
57889;SDS011;43707;50.184;18.966;2023-06-10T04:32:05;2.00;;;1.80;;
57889;SDS011;43707;50.184;18.966;2023-06-10T04:34:34;1.60;;;1.50;;
57889;SDS011;43707;50.184;18.966;2023-06-10T04:37:00;1.80;;;1.70;;
57889;SDS011;43707;50.184;18.966;2023-06-10T04:39:25;1.90;;;1.70;;
57889;SDS011;43707;50.184;18.966;2023-06-10T04:41:51;2.90;;;2.70;;
57889;SDS011;43707;50.184;18.966;2023-06-10T04:44:17;2.00;;;1.80;;
57889;SDS011;43707;50.184;18.966;2023-06-10T04:46:43;2.40;;;2.20;;
57889;SDS011;43707;50.184;18.966;2023-06-10T04:49:08;2.30;;;2.10;;
57889;SDS011;43707;50.184;18.966;2023-06-10T04:51:34;3.20;;;2.00;;
57889;SDS011;43707;50.184;18.966;2023-06-10T04:53:59;7.60;;;2.40;;
57889;SDS011;43707;50.184;18.966;2023-06-10T04:56:29;1.50;;;1.40;;
57889;SDS011;43707;50.184;18.966;2023-06-10T04:58:58;2.70;;;2.50;;
57889;SDS011;43707;50.184;18.966;2023-06-10T05:01:24;2.30;;;2.10;;
57889;SDS011;43707;50.184;18.966;2023-06-10T05:03:50;2.20;;;2.00;;
57889;SDS011;43707;50.184;18.966;2023-06-10T05:06:15;2.50;;;2.30;;
57889;SDS011;43707;50.184;18.966;2023-06-10T05:08:41;1.30;;;1.20;;
57889;SDS011;43707;50.184;18.966;2023-06-10T05:11:06;1.60;;;1.50;;
57889;SDS011;43707;50.184;18.966;2023-06-10T05:13:32;2.50;;;2.30;;
57889;SDS011;43707;50.184;18.966;2023-06-10T05:15:57;1.80;;;1.50;;
57889;SDS011;43707;50.184;18.966;2023-06-10T05:18:23;1.40;;;1.30;;
57889;SDS011;43707;50.184;18.966;2023-06-10T05:20:48;1.60;;;1.50;;
57889;SDS011;43707;50.184;18.966;2023-06-10T05:23:14;2.50;;;1.50;;
57889;SDS011;43707;50.184;18.966;2023-06-10T05:25:40;1.30;;;1.20;;
57889;SDS011;43707;50.184;18.966;2023-06-10T05:28:06;1.40;;;1.30;;
57889;SDS011;43707;50.184;18.966;2023-06-10T05:30:35;2.20;;;1.50;;
57889;SDS011;43707;50.184;18.966;2023-06-10T05:33:01;2.20;;;1.90;;
57889;SDS011;43707;50.184;18.966;2023-06-10T05:35:26;2.80;;;1.30;;
57889;SDS011;43707;50.184;18.966;2023-06-10T05:37:51;2.50;;;1.90;;
57889;SDS011;43707;50.184;18.966;2023-06-10T05:40:17;1.80;;;1.40;;
57889;SDS011;43707;50.184;18.966;2023-06-10T05:42:42;1.50;;;1.20;;
57889;SDS011;43707;50.184;18.966;2023-06-10T05:45:08;3.80;;;1.40;;
57889;SDS011;43707;50.184;18.966;2023-06-10T05:47:34;2.90;;;1.70;;
57889;SDS011;43707;50.184;18.966;2023-06-10T05:49:59;1.20;;;1.10;;
57889;SDS011;43707;50.184;18.966;2023-06-10T05:52:25;1.30;;;1.10;;
57889;SDS011;43707;50.184;18.966;2023-06-10T05:54:51;1.70;;;0.90;;
57889;SDS011;43707;50.184;18.966;2023-06-10T05:57:16;1.40;;;0.80;;
57889;SDS011;43707;50.184;18.966;2023-06-10T05:59:42;1.10;;;1.00;;
57889;SDS011;43707;50.184;18.966;2023-06-10T06:02:07;1.30;;;1.10;;
57889;SDS011;43707;50.184;18.966;2023-06-10T06:04:33;1.50;;;1.40;;
57889;SDS011;43707;50.184;18.966;2023-06-10T06:06:59;1.50;;;1.00;;
57889;SDS011;43707;50.184;18.966;2023-06-10T06:09:24;1.60;;;1.20;;
57889;SDS011;43707;50.184;18.966;2023-06-10T06:11:50;0.80;;;0.80;;
57889;SDS011;43707;50.184;18.966;2023-06-10T06:14:15;13.20;;;3.40;;
57889;SDS011;43707;50.184;18.966;2023-06-10T06:16:40;2.80;;;1.60;;
57889;SDS011;43707;50.184;18.966;2023-06-10T06:19:06;2.30;;;1.20;;
57889;SDS011;43707;50.184;18.966;2023-06-10T06:21:31;2.90;;;1.40;;
57889;SDS011;43707;50.184;18.966;2023-06-10T06:23:57;1.70;;;0.90;;
57889;SDS011;43707;50.184;18.966;2023-06-10T06:26:23;1.10;;;0.90;;
57889;SDS011;43707;50.184;18.966;2023-06-10T06:28:48;1.70;;;1.10;;
57889;SDS011;43707;50.184;18.966;2023-06-10T06:31:14;2.10;;;0.80;;
57889;SDS011;43707;50.184;18.966;2023-06-10T06:33:39;3.10;;;0.90;;
57889;SDS011;43707;50.184;18.966;2023-06-10T06:36:05;0.90;;;0.60;;
57889;SDS011;43707;50.184;18.966;2023-06-10T06:38:30;0.70;;;0.70;;
57889;SDS011;43707;50.184;18.966;2023-06-10T06:40:56;0.60;;;0.60;;
57889;SDS011;43707;50.184;18.966;2023-06-10T06:43:21;1.20;;;0.80;;
57889;SDS011;43707;50.184;18.966;2023-06-10T06:45:47;0.60;;;0.50;;
57889;SDS011;43707;50.184;18.966;2023-06-10T06:48:12;0.80;;;0.60;;
57889;SDS011;43707;50.184;18.966;2023-06-10T06:50:37;0.70;;;0.70;;
57889;SDS011;43707;50.184;18.966;2023-06-10T06:53:03;0.80;;;0.80;;
57889;SDS011;43707;50.184;18.966;2023-06-10T06:55:29;1.60;;;0.70;;
57889;SDS011;43707;50.184;18.966;2023-06-10T06:57:55;1.50;;;0.90;;
57889;SDS011;43707;50.184;18.966;2023-06-10T07:00:21;1.60;;;0.90;;
57889;SDS011;43707;50.184;18.966;2023-06-10T07:02:47;0.80;;;0.80;;
57889;SDS011;43707;50.184;18.966;2023-06-10T07:05:12;1.40;;;0.70;;
57889;SDS011;43707;50.184;18.966;2023-06-10T07:07:38;0.70;;;0.70;;
57889;SDS011;43707;50.184;18.966;2023-06-10T07:10:03;2.10;;;0.70;;
57889;SDS011;43707;50.184;18.966;2023-06-10T07:12:29;0.70;;;0.60;;
57889;SDS011;43707;50.184;18.966;2023-06-10T07:14:54;1.20;;;1.10;;
57889;SDS011;43707;50.184;18.966;2023-06-10T07:17:20;0.90;;;0.90;;
57889;SDS011;43707;50.184;18.966;2023-06-10T07:19:45;1.90;;;0.90;;
57889;SDS011;43707;50.184;18.966;2023-06-10T07:22:11;0.80;;;0.80;;
57889;SDS011;43707;50.184;18.966;2023-06-10T07:24:36;0.70;;;0.70;;
57889;SDS011;43707;50.184;18.966;2023-06-10T07:27:02;3.90;;;1.30;;
57889;SDS011;43707;50.184;18.966;2023-06-10T07:29:28;1.90;;;1.40;;
57889;SDS011;43707;50.184;18.966;2023-06-10T07:31:54;2.40;;;1.90;;
57889;SDS011;43707;50.184;18.966;2023-06-10T07:34:19;5.00;;;1.40;;
57889;SDS011;43707;50.184;18.966;2023-06-10T07:36:45;1.20;;;1.10;;
57889;SDS011;43707;50.184;18.966;2023-06-10T07:39:10;1.50;;;1.10;;
57889;SDS011;43707;50.184;18.966;2023-06-10T07:41:35;4.70;;;2.00;;
57889;SDS011;43707;50.184;18.966;2023-06-10T07:44:01;3.90;;;2.70;;
57889;SDS011;43707;50.184;18.966;2023-06-10T07:46:26;4.50;;;2.10;;
57889;SDS011;43707;50.184;18.966;2023-06-10T07:48:53;2.40;;;2.20;;
57889;SDS011;43707;50.184;18.966;2023-06-10T07:51:20;1.40;;;1.30;;
57889;SDS011;43707;50.184;18.966;2023-06-10T07:53:46;2.30;;;2.10;;
57889;SDS011;43707;50.184;18.966;2023-06-10T07:56:11;3.00;;;2.00;;
57889;SDS011;43707;50.184;18.966;2023-06-10T07:58:37;1.30;;;1.20;;
57889;SDS011;43707;50.184;18.966;2023-06-10T08:01:02;3.50;;;2.00;;
57889;SDS011;43707;50.184;18.966;2023-06-10T08:03:27;1.70;;;1.60;;
57889;SDS011;43707;50.184;18.966;2023-06-10T08:05:53;3.20;;;2.40;;
57889;SDS011;43707;50.184;18.966;2023-06-10T08:08:18;2.30;;;2.10;;
57889;SDS011;43707;50.184;18.966;2023-06-10T08:10:43;1.50;;;1.30;;
57889;SDS011;43707;50.184;18.966;2023-06-10T08:13:09;3.70;;;1.80;;
57889;SDS011;43707;50.184;18.966;2023-06-10T08:15:34;1.20;;;1.10;;
57889;SDS011;43707;50.184;18.966;2023-06-10T08:18:00;2.80;;;1.80;;
57889;SDS011;43707;50.184;18.966;2023-06-10T08:20:25;2.80;;;1.90;;
57889;SDS011;43707;50.184;18.966;2023-06-10T08:22:50;1.40;;;1.30;;
57889;SDS011;43707;50.184;18.966;2023-06-10T08:25:16;1.70;;;1.60;;
57889;SDS011;43707;50.184;18.966;2023-06-10T08:27:41;1.70;;;1.60;;
57889;SDS011;43707;50.184;18.966;2023-06-10T08:30:07;1.20;;;1.10;;
57889;SDS011;43707;50.184;18.966;2023-06-10T08:32:33;1.70;;;1.60;;
57889;SDS011;43707;50.184;18.966;2023-06-10T08:34:58;1.40;;;1.20;;
57889;SDS011;43707;50.184;18.966;2023-06-10T08:37:24;1.80;;;1.60;;
57889;SDS011;43707;50.184;18.966;2023-06-10T08:39:49;1.40;;;1.30;;
57889;SDS011;43707;50.184;18.966;2023-06-10T08:42:19;1.30;;;1.20;;
57889;SDS011;43707;50.184;18.966;2023-06-10T08:44:49;2.00;;;1.80;;
57889;SDS011;43707;50.184;18.966;2023-06-10T08:47:22;2.50;;;2.20;;
57889;SDS011;43707;50.184;18.966;2023-06-10T08:49:48;1.30;;;0.80;;
57889;SDS011;43707;50.184;18.966;2023-06-10T08:52:15;1.40;;;1.30;;
57889;SDS011;43707;50.184;18.966;2023-06-10T08:55:10;1.50;;;1.40;;
57889;SDS011;43707;50.184;18.966;2023-06-10T08:57:43;1.20;;;1.10;;
57889;SDS011;43707;50.184;18.966;2023-06-10T09:00:09;1.40;;;1.30;;
57889;SDS011;43707;50.184;18.966;2023-06-10T09:02:35;1.20;;;1.10;;
57889;SDS011;43707;50.184;18.966;2023-06-10T09:05:02;1.60;;;1.50;;
57889;SDS011;43707;50.184;18.966;2023-06-10T09:07:27;2.10;;;1.60;;
57889;SDS011;43707;50.184;18.966;2023-06-10T09:10:01;0.90;;;0.90;;
57889;SDS011;43707;50.184;18.966;2023-06-10T09:12:28;1.50;;;1.00;;
57889;SDS011;43707;50.184;18.966;2023-06-10T09:14:54;1.70;;;1.30;;
57889;SDS011;43707;50.184;18.966;2023-06-10T09:17:21;1.10;;;1.00;;
57889;SDS011;43707;50.184;18.966;2023-06-10T09:19:46;4.40;;;1.40;;
57889;SDS011;43707;50.184;18.966;2023-06-10T09:22:12;1.40;;;1.00;;
57889;SDS011;43707;50.184;18.966;2023-06-10T09:24:38;2.00;;;1.80;;
57889;SDS011;43707;50.184;18.966;2023-06-10T09:27:04;0.80;;;0.80;;
57889;SDS011;43707;50.184;18.966;2023-06-10T09:29:53;1.50;;;1.10;;
57889;SDS011;43707;50.184;18.966;2023-06-10T09:32:19;1.50;;;1.10;;
57889;SDS011;43707;50.184;18.966;2023-06-10T09:34:45;2.40;;;1.50;;
57889;SDS011;43707;50.184;18.966;2023-06-10T09:37:11;2.00;;;1.60;;
57889;SDS011;43707;50.184;18.966;2023-06-10T09:39:41;4.70;;;4.30;;
57889;SDS011;43707;50.184;18.966;2023-06-10T09:42:17;1.70;;;1.60;;
57889;SDS011;43707;50.184;18.966;2023-06-10T09:44:48;1.70;;;1.50;;
57889;SDS011;43707;50.184;18.966;2023-06-10T09:47:19;1.50;;;1.40;;
57889;SDS011;43707;50.184;18.966;2023-06-10T09:49:50;1.80;;;1.70;;
57889;SDS011;43707;50.184;18.966;2023-06-10T09:52:22;1.30;;;1.20;;
57889;SDS011;43707;50.184;18.966;2023-06-10T09:54:52;4.40;;;2.80;;
57889;SDS011;43707;50.184;18.966;2023-06-10T09:57:18;1.60;;;1.40;;
57889;SDS011;43707;50.184;18.966;2023-06-10T09:59:45;1.40;;;1.30;;
57889;SDS011;43707;50.184;18.966;2023-06-10T10:02:17;1.20;;;1.10;;
57889;SDS011;43707;50.184;18.966;2023-06-10T10:04:43;1.70;;;1.30;;
57889;SDS011;43707;50.184;18.966;2023-06-10T10:07:10;1.40;;;1.10;;
57889;SDS011;43707;50.184;18.966;2023-06-10T10:09:39;2.00;;;1.80;;
57889;SDS011;43707;50.184;18.966;2023-06-10T10:12:07;1.90;;;1.40;;
57889;SDS011;43707;50.184;18.966;2023-06-10T10:14:35;1.30;;;1.10;;
57889;SDS011;43707;50.184;18.966;2023-06-10T10:17:01;3.20;;;1.30;;
57889;SDS011;43707;50.184;18.966;2023-06-10T10:19:32;1.30;;;1.20;;
57889;SDS011;43707;50.184;18.966;2023-06-10T10:22:06;1.50;;;1.30;;
57889;SDS011;43707;50.184;18.966;2023-06-10T10:24:36;1.30;;;1.20;;
57889;SDS011;43707;50.184;18.966;2023-06-10T10:27:06;1.50;;;1.10;;
57889;SDS011;43707;50.184;18.966;2023-06-10T10:29:38;1.70;;;1.40;;
57889;SDS011;43707;50.184;18.966;2023-06-10T10:32:04;1.30;;;1.20;;
57889;SDS011;43707;50.184;18.966;2023-06-10T10:37:22;0.70;;;0.70;;
57889;SDS011;43707;50.184;18.966;2023-06-10T10:39:48;1.10;;;1.00;;
57889;SDS011;43707;50.184;18.966;2023-06-10T10:42:14;1.60;;;0.80;;
57889;SDS011;43707;50.184;18.966;2023-06-10T10:44:40;1.50;;;1.20;;
57889;SDS011;43707;50.184;18.966;2023-06-10T10:47:09;1.10;;;0.80;;
57889;SDS011;43707;50.184;18.966;2023-06-10T10:49:35;1.10;;;1.00;;
57889;SDS011;43707;50.184;18.966;2023-06-10T10:52:02;3.20;;;1.00;;
57889;SDS011;43707;50.184;18.966;2023-06-10T10:54:34;2.00;;;0.80;;
57889;SDS011;43707;50.184;18.966;2023-06-10T11:02:32;1.50;;;1.00;;
57889;SDS011;43707;50.184;18.966;2023-06-10T11:04:58;1.80;;;1.40;;
57889;SDS011;43707;50.184;18.966;2023-06-10T11:07:25;2.30;;;2.20;;
57889;SDS011;43707;50.184;18.966;2023-06-10T11:15:10;3.00;;;1.90;;
57889;SDS011;43707;50.184;18.966;2023-06-10T11:20:45;2.90;;;1.70;;
57889;SDS011;43707;50.184;18.966;2023-06-10T11:28:42;1.10;;;1.00;;
57889;SDS011;43707;50.184;18.966;2023-06-10T11:31:28;1.20;;;1.10;;
57889;SDS011;43707;50.184;18.966;2023-06-10T11:36:28;1.10;;;1.00;;
57889;SDS011;43707;50.184;18.966;2023-06-10T11:38:57;1.30;;;0.80;;
57889;SDS011;43707;50.184;18.966;2023-06-10T11:41:27;0.70;;;0.70;;
57889;SDS011;43707;50.184;18.966;2023-06-10T11:43:54;1.00;;;0.90;;
57889;SDS011;43707;50.184;18.966;2023-06-10T11:46:23;1.20;;;0.80;;
57889;SDS011;43707;50.184;18.966;2023-06-10T11:48:52;1.10;;;0.90;;
57889;SDS011;43707;50.184;18.966;2023-06-10T11:51:21;0.80;;;0.80;;
57889;SDS011;43707;50.184;18.966;2023-06-10T11:53:49;0.80;;;0.80;;
57889;SDS011;43707;50.184;18.966;2023-06-10T11:56:21;1.30;;;1.10;;
57889;SDS011;43707;50.184;18.966;2023-06-10T11:58:57;1.70;;;1.60;;
57889;SDS011;43707;50.184;18.966;2023-06-10T12:01:26;1.90;;;1.70;;
57889;SDS011;43707;50.184;18.966;2023-06-10T12:04:05;1.60;;;1.50;;
57889;SDS011;43707;50.184;18.966;2023-06-10T12:06:39;1.20;;;1.10;;
57889;SDS011;43707;50.184;18.966;2023-06-10T12:11:31;2.20;;;1.00;;
57889;SDS011;43707;50.184;18.966;2023-06-10T12:13:56;1.40;;;0.80;;
57889;SDS011;43707;50.184;18.966;2023-06-10T12:16:22;1.10;;;0.80;;
57889;SDS011;43707;50.184;18.966;2023-06-10T12:18:47;1.20;;;0.90;;
57889;SDS011;43707;50.184;18.966;2023-06-10T12:24:02;1.50;;;0.70;;
57889;SDS011;43707;50.184;18.966;2023-06-10T12:29:01;0.70;;;0.70;;
57889;SDS011;43707;50.184;18.966;2023-06-10T12:31:56;0.80;;;0.80;;
57889;SDS011;43707;50.184;18.966;2023-06-10T12:34:35;0.70;;;0.70;;
57889;SDS011;43707;50.184;18.966;2023-06-10T12:37:06;2.10;;;0.80;;
57889;SDS011;43707;50.184;18.966;2023-06-10T12:39:38;0.70;;;0.70;;
57889;SDS011;43707;50.184;18.966;2023-06-10T12:42:04;0.60;;;0.60;;
57889;SDS011;43707;50.184;18.966;2023-06-10T12:44:31;0.70;;;0.60;;
57889;SDS011;43707;50.184;18.966;2023-06-10T12:46:58;0.90;;;0.70;;
57889;SDS011;43707;50.184;18.966;2023-06-10T12:49:23;0.60;;;0.60;;
57889;SDS011;43707;50.184;18.966;2023-06-10T12:51:50;1.40;;;0.70;;
57889;SDS011;43707;50.184;18.966;2023-06-10T12:54:15;1.90;;;0.60;;
57889;SDS011;43707;50.184;18.966;2023-06-10T12:56:40;0.80;;;0.80;;
57889;SDS011;43707;50.184;18.966;2023-06-10T12:59:06;1.00;;;1.00;;
57889;SDS011;43707;50.184;18.966;2023-06-10T13:01:31;4.50;;;0.90;;
57889;SDS011;43707;50.184;18.966;2023-06-10T13:03:58;0.80;;;0.80;;
57889;SDS011;43707;50.184;18.966;2023-06-10T13:06:23;0.70;;;0.70;;
57889;SDS011;43707;50.184;18.966;2023-06-10T13:08:48;0.50;;;0.50;;
57889;SDS011;43707;50.184;18.966;2023-06-10T13:11:15;0.60;;;0.60;;
57889;SDS011;43707;50.184;18.966;2023-06-10T13:13:41;0.70;;;0.70;;
57889;SDS011;43707;50.184;18.966;2023-06-10T13:16:06;0.60;;;0.50;;
57889;SDS011;43707;50.184;18.966;2023-06-10T13:18:32;0.90;;;0.70;;
57889;SDS011;43707;50.184;18.966;2023-06-10T13:21:02;0.70;;;0.60;;
57889;SDS011;43707;50.184;18.966;2023-06-10T13:23:28;2.00;;;0.70;;
57889;SDS011;43707;50.184;18.966;2023-06-10T13:25:54;0.50;;;0.50;;
57889;SDS011;43707;50.184;18.966;2023-06-10T13:28:20;0.70;;;0.70;;
57889;SDS011;43707;50.184;18.966;2023-06-10T13:30:46;0.70;;;0.60;;
57889;SDS011;43707;50.184;18.966;2023-06-10T13:33:11;0.50;;;0.50;;
57889;SDS011;43707;50.184;18.966;2023-06-10T13:35:37;0.60;;;0.60;;
57889;SDS011;43707;50.184;18.966;2023-06-10T13:38:03;0.50;;;0.50;;
57889;SDS011;43707;50.184;18.966;2023-06-10T13:40:28;0.40;;;0.40;;
57889;SDS011;43707;50.184;18.966;2023-06-10T13:42:53;0.50;;;0.40;;
57889;SDS011;43707;50.184;18.966;2023-06-10T13:45:19;0.50;;;0.50;;
57889;SDS011;43707;50.184;18.966;2023-06-10T13:47:44;0.40;;;0.40;;
57889;SDS011;43707;50.184;18.966;2023-06-10T13:50:10;0.30;;;0.30;;
57889;SDS011;43707;50.184;18.966;2023-06-10T13:52:35;0.40;;;0.30;;
57889;SDS011;43707;50.184;18.966;2023-06-10T13:55:01;0.50;;;0.40;;
57889;SDS011;43707;50.184;18.966;2023-06-10T13:57:26;0.30;;;0.30;;
57889;SDS011;43707;50.184;18.966;2023-06-10T13:59:51;0.20;;;0.20;;
57889;SDS011;43707;50.184;18.966;2023-06-10T14:02:17;0.50;;;0.40;;
57889;SDS011;43707;50.184;18.966;2023-06-10T14:04:42;0.30;;;0.30;;
57889;SDS011;43707;50.184;18.966;2023-06-10T14:07:08;1.70;;;0.40;;
57889;SDS011;43707;50.184;18.966;2023-06-10T14:09:33;0.20;;;0.20;;
57889;SDS011;43707;50.184;18.966;2023-06-10T14:11:58;0.30;;;0.30;;
57889;SDS011;43707;50.184;18.966;2023-06-10T14:14:24;0.30;;;0.30;;
57889;SDS011;43707;50.184;18.966;2023-06-10T14:16:49;0.30;;;0.30;;
57889;SDS011;43707;50.184;18.966;2023-06-10T14:19:15;0.30;;;0.30;;
57889;SDS011;43707;50.184;18.966;2023-06-10T14:21:40;0.60;;;0.30;;
57889;SDS011;43707;50.184;18.966;2023-06-10T14:24:05;0.50;;;0.30;;
57889;SDS011;43707;50.184;18.966;2023-06-10T14:26:31;0.40;;;0.30;;
57889;SDS011;43707;50.184;18.966;2023-06-10T14:28:58;0.20;;;0.20;;
57889;SDS011;43707;50.184;18.966;2023-06-10T14:31:23;0.40;;;0.20;;
57889;SDS011;43707;50.184;18.966;2023-06-10T14:33:48;1.70;;;0.40;;
57889;SDS011;43707;50.184;18.966;2023-06-10T14:36:14;0.30;;;0.30;;
57889;SDS011;43707;50.184;18.966;2023-06-10T14:38:39;0.30;;;0.30;;
57889;SDS011;43707;50.184;18.966;2023-06-10T14:41:05;0.20;;;0.20;;
57889;SDS011;43707;50.184;18.966;2023-06-10T14:43:30;0.30;;;0.30;;
57889;SDS011;43707;50.184;18.966;2023-06-10T14:45:55;0.20;;;0.20;;
57889;SDS011;43707;50.184;18.966;2023-06-10T14:48:22;0.30;;;0.20;;
57889;SDS011;43707;50.184;18.966;2023-06-10T14:50:47;0.20;;;0.20;;
57889;SDS011;43707;50.184;18.966;2023-06-10T14:53:17;0.20;;;0.20;;
57889;SDS011;43707;50.184;18.966;2023-06-10T14:55:43;0.40;;;0.30;;
57889;SDS011;43707;50.184;18.966;2023-06-10T14:58:08;0.30;;;0.20;;
57889;SDS011;43707;50.184;18.966;2023-06-10T15:00:34;0.30;;;0.30;;
57889;SDS011;43707;50.184;18.966;2023-06-10T15:02:59;2.20;;;0.40;;
57889;SDS011;43707;50.184;18.966;2023-06-10T15:05:24;0.50;;;0.50;;